sensor_id;sensor_type;location;lat;lon;timestamp;temperature;humidity
423;DHT22;198;48.752;9.180;2023-07-13T00:01:05;19.80;82.50
423;DHT22;198;48.752;9.180;2023-07-13T00:03:31;19.80;81.50
423;DHT22;198;48.752;9.180;2023-07-13T00:06:00;19.70;81.60
423;DHT22;198;48.752;9.180;2023-07-13T00:08:26;19.70;81.20
423;DHT22;198;48.752;9.180;2023-07-13T00:10:52;19.70;82.00
423;DHT22;198;48.752;9.180;2023-07-13T00:13:20;19.70;80.30
423;DHT22;198;48.752;9.180;2023-07-13T00:15:45;19.60;80.90
423;DHT22;198;48.752;9.180;2023-07-13T00:18:11;19.60;80.30
423;DHT22;198;48.752;9.180;2023-07-13T00:20:36;19.50;80.40
423;DHT22;198;48.752;9.180;2023-07-13T00:23:02;19.50;79.90
423;DHT22;198;48.752;9.180;2023-07-13T00:25:27;19.40;79.70
423;DHT22;198;48.752;9.180;2023-07-13T00:27:56;19.40;78.90
423;DHT22;198;48.752;9.180;2023-07-13T00:30:21;19.40;78.80
423;DHT22;198;48.752;9.180;2023-07-13T00:32:47;19.40;78.20
423;DHT22;198;48.752;9.180;2023-07-13T00:35:14;19.30;78.60
423;DHT22;198;48.752;9.180;2023-07-13T00:37:40;19.30;78.10
423;DHT22;198;48.752;9.180;2023-07-13T00:40:07;19.30;77.70
423;DHT22;198;48.752;9.180;2023-07-13T00:42:33;19.20;77.40
423;DHT22;198;48.752;9.180;2023-07-13T00:47:47;19.20;77.20
423;DHT22;198;48.752;9.180;2023-07-13T00:50:15;19.20;76.70
423;DHT22;198;48.752;9.180;2023-07-13T00:52:50;19.20;77.10
423;DHT22;198;48.752;9.180;2023-07-13T00:55:17;19.10;77.00
423;DHT22;198;48.752;9.180;2023-07-13T00:57:44;19.10;77.20
423;DHT22;198;48.752;9.180;2023-07-13T01:00:10;19.10;79.00
423;DHT22;198;48.752;9.180;2023-07-13T01:02:38;19.10;77.10
423;DHT22;198;48.752;9.180;2023-07-13T01:05:10;19.20;77.80
423;DHT22;198;48.752;9.180;2023-07-13T01:07:36;19.20;76.80
423;DHT22;198;48.752;9.180;2023-07-13T01:10:02;19.20;77.00
423;DHT22;198;48.752;9.180;2023-07-13T01:12:28;19.20;75.90
423;DHT22;198;48.752;9.180;2023-07-13T01:14:58;19.30;75.10
423;DHT22;198;48.752;9.180;2023-07-13T01:17:26;19.30;74.70
423;DHT22;198;48.752;9.180;2023-07-13T01:19:52;19.40;74.40
423;DHT22;198;48.752;9.180;2023-07-13T01:22:19;19.40;74.60
423;DHT22;198;48.752;9.180;2023-07-13T01:24:46;19.40;74.20
423;DHT22;198;48.752;9.180;2023-07-13T01:27:15;19.50;74.80
423;DHT22;198;48.752;9.180;2023-07-13T01:29:42;19.40;74.00
423;DHT22;198;48.752;9.180;2023-07-13T01:32:16;19.40;74.90
423;DHT22;198;48.752;9.180;2023-07-13T01:34:42;19.30;75.10
423;DHT22;198;48.752;9.180;2023-07-13T01:37:10;19.30;74.10
423;DHT22;198;48.752;9.180;2023-07-13T01:39:35;19.20;74.00
423;DHT22;198;48.752;9.180;2023-07-13T01:42:01;19.10;74.10
423;DHT22;198;48.752;9.180;2023-07-13T01:44:27;19.00;74.70
423;DHT22;198;48.752;9.180;2023-07-13T01:46:52;19.00;75.40
423;DHT22;198;48.752;9.180;2023-07-13T01:49:18;18.90;77.20
423;DHT22;198;48.752;9.180;2023-07-13T01:51:44;18.80;77.20
423;DHT22;198;48.752;9.180;2023-07-13T01:54:09;18.70;78.20
423;DHT22;198;48.752;9.180;2023-07-13T01:56:34;18.70;79.30
423;DHT22;198;48.752;9.180;2023-07-13T01:59:00;18.60;78.70
423;DHT22;198;48.752;9.180;2023-07-13T02:01:25;18.60;79.00
423;DHT22;198;48.752;9.180;2023-07-13T02:03:51;18.50;79.00
423;DHT22;198;48.752;9.180;2023-07-13T02:06:16;18.60;78.80
423;DHT22;198;48.752;9.180;2023-07-13T02:08:42;18.50;80.30
423;DHT22;198;48.752;9.180;2023-07-13T02:11:08;18.50;80.40
423;DHT22;198;48.752;9.180;2023-07-13T02:13:34;18.40;80.90
423;DHT22;198;48.752;9.180;2023-07-13T02:16:00;18.40;81.60
423;DHT22;198;48.752;9.180;2023-07-13T02:18:25;18.40;82.10
423;DHT22;198;48.752;9.180;2023-07-13T02:20:51;18.30;81.00
423;DHT22;198;48.752;9.180;2023-07-13T02:23:16;18.30;81.40
423;DHT22;198;48.752;9.180;2023-07-13T02:25:42;18.30;82.10
423;DHT22;198;48.752;9.180;2023-07-13T02:28:08;18.30;81.50
423;DHT22;198;48.752;9.180;2023-07-13T02:30:34;18.20;81.90
423;DHT22;198;48.752;9.180;2023-07-13T02:33:00;18.20;84.50
423;DHT22;198;48.752;9.180;2023-07-13T02:35:26;18.20;87.20
423;DHT22;198;48.752;9.180;2023-07-13T02:37:51;18.10;89.40
423;DHT22;198;48.752;9.180;2023-07-13T02:40:17;18.00;90.40
423;DHT22;198;48.752;9.180;2023-07-13T02:42:42;18.00;91.30
423;DHT22;198;48.752;9.180;2023-07-13T02:45:09;17.90;91.60
423;DHT22;198;48.752;9.180;2023-07-13T02:47:35;17.90;91.90
423;DHT22;198;48.752;9.180;2023-07-13T02:50:01;17.80;92.80
423;DHT22;198;48.752;9.180;2023-07-13T02:52:27;17.80;93.40
423;DHT22;198;48.752;9.180;2023-07-13T02:54:52;17.70;94.30
423;DHT22;198;48.752;9.180;2023-07-13T02:57:18;17.70;95.10
423;DHT22;198;48.752;9.180;2023-07-13T02:59:43;17.70;96.10
423;DHT22;198;48.752;9.180;2023-07-13T03:02:09;17.70;96.40
423;DHT22;198;48.752;9.180;2023-07-13T03:04:36;17.60;97.30
423;DHT22;198;48.752;9.180;2023-07-13T03:07:02;17.60;97.90
423;DHT22;198;48.752;9.180;2023-07-13T03:09:28;17.60;98.50
423;DHT22;198;48.752;9.180;2023-07-13T03:11:54;17.60;99.10
423;DHT22;198;48.752;9.180;2023-07-13T03:14:21;17.60;99.30
423;DHT22;198;48.752;9.180;2023-07-13T03:16:47;17.60;99.00
423;DHT22;198;48.752;9.180;2023-07-13T03:19:12;17.60;99.90
423;DHT22;198;48.752;9.180;2023-07-13T03:21:38;17.70;99.90
423;DHT22;198;48.752;9.180;2023-07-13T03:24:03;17.70;99.90
423;DHT22;198;48.752;9.180;2023-07-13T03:26:29;17.80;99.90
423;DHT22;198;48.752;9.180;2023-07-13T03:28:55;17.90;99.90
423;DHT22;198;48.752;9.180;2023-07-13T03:31:22;18.10;99.90
423;DHT22;198;48.752;9.180;2023-07-13T03:33:49;18.20;99.90
423;DHT22;198;48.752;9.180;2023-07-13T03:36:17;18.30;99.90
423;DHT22;198;48.752;9.180;2023-07-13T03:38:54;18.40;99.60
423;DHT22;198;48.752;9.180;2023-07-13T03:41:20;18.50;98.10
423;DHT22;198;48.752;9.180;2023-07-13T03:43:46;18.60;98.50
423;DHT22;198;48.752;9.180;2023-07-13T03:46:13;18.70;98.70
423;DHT22;198;48.752;9.180;2023-07-13T03:48:40;18.70;98.20
423;DHT22;198;48.752;9.180;2023-07-13T03:51:08;18.80;98.20
423;DHT22;198;48.752;9.180;2023-07-13T03:53:35;18.80;97.70
423;DHT22;198;48.752;9.180;2023-07-13T03:56:00;18.90;94.00
423;DHT22;198;48.752;9.180;2023-07-13T03:58:36;18.90;92.90
423;DHT22;198;48.752;9.180;2023-07-13T04:01:03;19.00;91.90
423;DHT22;198;48.752;9.180;2023-07-13T04:03:30;19.10;91.60
423;DHT22;198;48.752;9.180;2023-07-13T04:05:58;19.10;91.40
423;DHT22;198;48.752;9.180;2023-07-13T04:08:29;19.20;90.80
423;DHT22;198;48.752;9.180;2023-07-13T04:10:55;19.20;88.80
423;DHT22;198;48.752;9.180;2023-07-13T04:13:21;19.20;87.20
423;DHT22;198;48.752;9.180;2023-07-13T04:15:47;19.30;86.90
423;DHT22;198;48.752;9.180;2023-07-13T04:18:13;19.30;85.20
423;DHT22;198;48.752;9.180;2023-07-13T04:20:38;19.30;84.40
423;DHT22;198;48.752;9.180;2023-07-13T04:23:04;19.40;81.50
423;DHT22;198;48.752;9.180;2023-07-13T04:25:29;19.40;82.40
423;DHT22;198;48.752;9.180;2023-07-13T04:27:55;19.50;83.30
423;DHT22;198;48.752;9.180;2023-07-13T04:30:20;19.50;82.30
423;DHT22;198;48.752;9.180;2023-07-13T04:32:47;19.60;81.40
423;DHT22;198;48.752;9.180;2023-07-13T04:35:13;19.60;82.10
423;DHT22;198;48.752;9.180;2023-07-13T04:37:39;19.60;82.30
423;DHT22;198;48.752;9.180;2023-07-13T04:40:05;19.60;80.00
423;DHT22;198;48.752;9.180;2023-07-13T04:42:31;19.60;79.60
423;DHT22;198;48.752;9.180;2023-07-13T04:44:57;19.50;80.30
423;DHT22;198;48.752;9.180;2023-07-13T04:47:22;19.50;80.90
423;DHT22;198;48.752;9.180;2023-07-13T04:49:48;19.40;81.90
423;DHT22;198;48.752;9.180;2023-07-13T04:52:13;19.40;81.10
423;DHT22;198;48.752;9.180;2023-07-13T04:54:39;19.30;82.30
423;DHT22;198;48.752;9.180;2023-07-13T04:57:05;19.20;82.50
423;DHT22;198;48.752;9.180;2023-07-13T04:59:33;19.20;81.80
423;DHT22;198;48.752;9.180;2023-07-13T05:01:59;19.10;83.70
423;DHT22;198;48.752;9.180;2023-07-13T05:04:25;19.10;84.20
423;DHT22;198;48.752;9.180;2023-07-13T05:06:50;19.10;84.50
423;DHT22;198;48.752;9.180;2023-07-13T05:09:16;19.20;85.80
423;DHT22;198;48.752;9.180;2023-07-13T05:11:43;19.30;86.20
423;DHT22;198;48.752;9.180;2023-07-13T05:14:08;19.50;86.80
423;DHT22;198;48.752;9.180;2023-07-13T05:16:35;19.60;87.00
423;DHT22;198;48.752;9.180;2023-07-13T05:19:00;19.70;85.40
423;DHT22;198;48.752;9.180;2023-07-13T05:21:26;19.80;83.40
423;DHT22;198;48.752;9.180;2023-07-13T05:23:51;19.90;81.50
423;DHT22;198;48.752;9.180;2023-07-13T05:26:17;20.00;76.80
423;DHT22;198;48.752;9.180;2023-07-13T05:28:42;20.10;76.70
423;DHT22;198;48.752;9.180;2023-07-13T05:31:09;20.20;76.80
423;DHT22;198;48.752;9.180;2023-07-13T05:33:35;20.30;73.60
423;DHT22;198;48.752;9.180;2023-07-13T05:36:01;20.40;71.80
423;DHT22;198;48.752;9.180;2023-07-13T05:38:27;20.40;73.10
423;DHT22;198;48.752;9.180;2023-07-13T05:40:54;20.50;74.30
423;DHT22;198;48.752;9.180;2023-07-13T05:43:21;20.50;72.70
423;DHT22;198;48.752;9.180;2023-07-13T05:45:47;20.50;74.20
423;DHT22;198;48.752;9.180;2023-07-13T05:48:12;20.60;75.20
423;DHT22;198;48.752;9.180;2023-07-13T05:50:38;20.60;71.20
423;DHT22;198;48.752;9.180;2023-07-13T05:53:03;20.60;70.60
423;DHT22;198;48.752;9.180;2023-07-13T05:55:29;20.60;71.30
423;DHT22;198;48.752;9.180;2023-07-13T05:57:55;20.60;75.00
423;DHT22;198;48.752;9.180;2023-07-13T06:00:20;20.50;71.30
423;DHT22;198;48.752;9.180;2023-07-13T06:02:46;20.40;72.40
423;DHT22;198;48.752;9.180;2023-07-13T06:05:12;20.40;74.40
423;DHT22;198;48.752;9.180;2023-07-13T06:07:38;20.30;74.50
423;DHT22;198;48.752;9.180;2023-07-13T06:10:04;20.20;71.60
423;DHT22;198;48.752;9.180;2023-07-13T06:12:29;20.20;70.60
423;DHT22;198;48.752;9.180;2023-07-13T06:14:55;20.20;70.20
423;DHT22;198;48.752;9.180;2023-07-13T06:17:20;20.20;69.60
423;DHT22;198;48.752;9.180;2023-07-13T06:19:46;20.10;69.10
423;DHT22;198;48.752;9.180;2023-07-13T06:22:11;20.20;68.50
423;DHT22;198;48.752;9.180;2023-07-13T06:24:37;20.10;69.50
423;DHT22;198;48.752;9.180;2023-07-13T06:27:02;20.10;69.50
423;DHT22;198;48.752;9.180;2023-07-13T06:29:28;20.10;68.20
423;DHT22;198;48.752;9.180;2023-07-13T06:31:53;20.00;69.20
423;DHT22;198;48.752;9.180;2023-07-13T06:34:19;20.00;67.90
423;DHT22;198;48.752;9.180;2023-07-13T06:36:45;20.10;67.90
423;DHT22;198;48.752;9.180;2023-07-13T06:39:10;20.20;67.60
423;DHT22;198;48.752;9.180;2023-07-13T06:41:36;20.20;68.10
423;DHT22;198;48.752;9.180;2023-07-13T06:44:03;20.30;66.50
423;DHT22;198;48.752;9.180;2023-07-13T06:46:29;20.50;65.80
423;DHT22;198;48.752;9.180;2023-07-13T06:48:55;20.80;66.90
423;DHT22;198;48.752;9.180;2023-07-13T06:51:21;20.80;65.30
423;DHT22;198;48.752;9.180;2023-07-13T06:53:47;20.80;64.60
423;DHT22;198;48.752;9.180;2023-07-13T06:56:12;20.90;65.60
423;DHT22;198;48.752;9.180;2023-07-13T06:58:38;21.00;66.40
423;DHT22;198;48.752;9.180;2023-07-13T07:01:05;21.00;63.70
423;DHT22;198;48.752;9.180;2023-07-13T07:06:18;21.20;65.50
423;DHT22;198;48.752;9.180;2023-07-13T07:08:44;21.20;62.80
423;DHT22;198;48.752;9.180;2023-07-13T07:11:13;21.10;61.20
423;DHT22;198;48.752;9.180;2023-07-13T07:13:39;21.10;61.10
423;DHT22;198;48.752;9.180;2023-07-13T07:16:05;21.10;61.40
423;DHT22;198;48.752;9.180;2023-07-13T07:18:32;21.10;59.90
423;DHT22;198;48.752;9.180;2023-07-13T07:20:57;21.20;59.70
423;DHT22;198;48.752;9.180;2023-07-13T07:23:23;21.20;58.30
423;DHT22;198;48.752;9.180;2023-07-13T07:25:48;21.20;58.40
423;DHT22;198;48.752;9.180;2023-07-13T07:28:15;21.30;58.70
423;DHT22;198;48.752;9.180;2023-07-13T07:30:44;21.40;58.80
423;DHT22;198;48.752;9.180;2023-07-13T07:33:09;21.40;58.00
423;DHT22;198;48.752;9.180;2023-07-13T07:35:35;21.50;57.90
423;DHT22;198;48.752;9.180;2023-07-13T07:38:00;21.50;56.10
423;DHT22;198;48.752;9.180;2023-07-13T07:40:26;21.50;55.60
423;DHT22;198;48.752;9.180;2023-07-13T07:42:52;21.60;57.40
423;DHT22;198;48.752;9.180;2023-07-13T07:45:19;21.60;56.40
423;DHT22;198;48.752;9.180;2023-07-13T07:47:44;21.70;57.10
423;DHT22;198;48.752;9.180;2023-07-13T07:50:10;21.70;56.50
423;DHT22;198;48.752;9.180;2023-07-13T07:52:36;21.80;56.70
423;DHT22;198;48.752;9.180;2023-07-13T07:55:02;21.90;56.90
423;DHT22;198;48.752;9.180;2023-07-13T07:57:28;21.90;55.00
423;DHT22;198;48.752;9.180;2023-07-13T07:59:54;22.00;55.80
423;DHT22;198;48.752;9.180;2023-07-13T08:02:19;22.10;55.70
423;DHT22;198;48.752;9.180;2023-07-13T08:04:44;22.10;55.70
423;DHT22;198;48.752;9.180;2023-07-13T08:07:10;22.20;55.10
423;DHT22;198;48.752;9.180;2023-07-13T08:09:35;22.40;54.70
423;DHT22;198;48.752;9.180;2023-07-13T08:12:01;22.50;54.60
423;DHT22;198;48.752;9.180;2023-07-13T08:14:27;22.60;54.80
423;DHT22;198;48.752;9.180;2023-07-13T08:16:52;22.70;51.80
423;DHT22;198;48.752;9.180;2023-07-13T08:19:18;22.60;51.40
423;DHT22;198;48.752;9.180;2023-07-13T08:21:44;22.70;52.40
423;DHT22;198;48.752;9.180;2023-07-13T08:24:10;22.80;52.30
423;DHT22;198;48.752;9.180;2023-07-13T08:26:36;22.90;52.10
423;DHT22;198;48.752;9.180;2023-07-13T08:29:02;23.00;52.00
423;DHT22;198;48.752;9.180;2023-07-13T08:31:27;23.10;53.00
423;DHT22;198;48.752;9.180;2023-07-13T08:33:53;23.20;50.00
423;DHT22;198;48.752;9.180;2023-07-13T08:36:18;23.30;51.00
423;DHT22;198;48.752;9.180;2023-07-13T08:38:44;23.40;49.60
423;DHT22;198;48.752;9.180;2023-07-13T08:41:15;23.60;50.50
423;DHT22;198;48.752;9.180;2023-07-13T08:43:43;23.70;51.00
423;DHT22;198;48.752;9.180;2023-07-13T08:46:33;23.70;49.50
423;DHT22;198;48.752;9.180;2023-07-13T08:49:04;24.00;50.70
423;DHT22;198;48.752;9.180;2023-07-13T08:51:38;24.20;48.30
423;DHT22;198;48.752;9.180;2023-07-13T08:56:44;24.30;46.80
423;DHT22;198;48.752;9.180;2023-07-13T08:59:14;24.30;47.90
423;DHT22;198;48.752;9.180;2023-07-13T09:04:28;24.80;46.00
423;DHT22;198;48.752;9.180;2023-07-13T09:06:58;25.20;45.30
423;DHT22;198;48.752;9.180;2023-07-13T09:15:32;26.10;42.70
423;DHT22;198;48.752;9.180;2023-07-13T09:18:03;26.40;41.50
423;DHT22;198;48.752;9.180;2023-07-13T09:23:13;26.70;42.70
423;DHT22;198;48.752;9.180;2023-07-13T09:25:40;26.70;43.00
423;DHT22;198;48.752;9.180;2023-07-13T09:28:12;26.70;40.80
423;DHT22;198;48.752;9.180;2023-07-13T09:33:12;27.20;41.40
423;DHT22;198;48.752;9.180;2023-07-13T09:35:37;27.50;40.70
423;DHT22;198;48.752;9.180;2023-07-13T09:38:14;27.90;39.60
423;DHT22;198;48.752;9.180;2023-07-13T09:43:34;28.60;39.30
423;DHT22;198;48.752;9.180;2023-07-13T09:46:00;28.60;38.90
423;DHT22;198;48.752;9.180;2023-07-13T09:48:34;28.40;38.40
423;DHT22;198;48.752;9.180;2023-07-13T09:51:12;28.20;39.00
423;DHT22;198;48.752;9.180;2023-07-13T09:53:41;28.30;39.50
423;DHT22;198;48.752;9.180;2023-07-13T09:56:22;28.90;38.70
423;DHT22;198;48.752;9.180;2023-07-13T09:58:48;30.30;37.00
423;DHT22;198;48.752;9.180;2023-07-13T10:01:14;31.70;35.80
423;DHT22;198;48.752;9.180;2023-07-13T10:03:39;33.00;32.70
423;DHT22;198;48.752;9.180;2023-07-13T10:06:15;33.70;31.10
423;DHT22;198;48.752;9.180;2023-07-13T10:08:41;33.60;30.80
423;DHT22;198;48.752;9.180;2023-07-13T10:11:19;33.40;29.80
423;DHT22;198;48.752;9.180;2023-07-13T10:16:16;31.60;32.20
423;DHT22;198;48.752;9.180;2023-07-13T10:18:46;32.40;30.80
423;DHT22;198;48.752;9.180;2023-07-13T10:21:17;33.60;31.20
423;DHT22;198;48.752;9.180;2023-07-13T10:23:47;34.10;29.70
423;DHT22;198;48.752;9.180;2023-07-13T10:26:21;34.90;28.70
423;DHT22;198;48.752;9.180;2023-07-13T10:28:53;36.20;27.90
423;DHT22;198;48.752;9.180;2023-07-13T10:31:21;38.30;27.20
423;DHT22;198;48.752;9.180;2023-07-13T10:33:47;39.60;24.80
423;DHT22;198;48.752;9.180;2023-07-13T10:38:43;42.20;22.90
423;DHT22;198;48.752;9.180;2023-07-13T10:41:14;42.50;22.00
423;DHT22;198;48.752;9.180;2023-07-13T10:43:47;42.10;22.10
423;DHT22;198;48.752;9.180;2023-07-13T10:46:17;41.10;22.10
423;DHT22;198;48.752;9.180;2023-07-13T10:48:46;40.30;21.60
423;DHT22;198;48.752;9.180;2023-07-13T10:51:14;39.00;22.40
423;DHT22;198;48.752;9.180;2023-07-13T10:53:40;37.50;23.00
423;DHT22;198;48.752;9.180;2023-07-13T10:56:28;36.30;24.40
423;DHT22;198;48.752;9.180;2023-07-13T10:59:09;35.40;24.90
423;DHT22;198;48.752;9.180;2023-07-13T11:01:40;35.20;25.20
423;DHT22;198;48.752;9.180;2023-07-13T11:04:12;36.50;25.30
423;DHT22;198;48.752;9.180;2023-07-13T11:06:38;39.10;24.30
423;DHT22;198;48.752;9.180;2023-07-13T11:11:43;42.00;22.00
423;DHT22;198;48.752;9.180;2023-07-13T11:14:34;42.60;21.50
423;DHT22;198;48.752;9.180;2023-07-13T11:19:51;46.10;19.40
423;DHT22;198;48.752;9.180;2023-07-13T11:22:23;46.90;19.30
423;DHT22;198;48.752;9.180;2023-07-13T11:25:00;47.60;19.10
423;DHT22;198;48.752;9.180;2023-07-13T11:27:37;45.40;19.10
423;DHT22;198;48.752;9.180;2023-07-13T11:30:25;43.20;20.50
423;DHT22;198;48.752;9.180;2023-07-13T11:33:10;41.20;21.10
423;DHT22;198;48.752;9.180;2023-07-13T11:40:55;44.50;21.80
423;DHT22;198;48.752;9.180;2023-07-13T11:43:23;47.30;20.30
423;DHT22;198;48.752;9.180;2023-07-13T11:45:50;46.80;19.20
423;DHT22;198;48.752;9.180;2023-07-13T11:48:23;46.80;19.30
423;DHT22;198;48.752;9.180;2023-07-13T11:50:59;46.30;19.10
423;DHT22;198;48.752;9.180;2023-07-13T11:53:28;48.30;18.90
423;DHT22;198;48.752;9.180;2023-07-13T11:55:54;49.30;17.60
423;DHT22;198;48.752;9.180;2023-07-13T11:58:23;47.10;18.20
423;DHT22;198;48.752;9.180;2023-07-13T12:00:49;48.30;19.00
423;DHT22;198;48.752;9.180;2023-07-13T12:03:19;48.40;17.90
423;DHT22;198;48.752;9.180;2023-07-13T12:06:00;46.10;17.80
423;DHT22;198;48.752;9.180;2023-07-13T12:08:26;43.00;19.70
423;DHT22;198;48.752;9.180;2023-07-13T12:11:04;40.90;20.70
423;DHT22;198;48.752;9.180;2023-07-13T12:13:38;39.40;22.70
423;DHT22;198;48.752;9.180;2023-07-13T12:16:12;38.60;22.90
423;DHT22;198;48.752;9.180;2023-07-13T12:18:39;40.00;23.10
423;DHT22;198;48.752;9.180;2023-07-13T12:21:05;43.30;21.10
423;DHT22;198;48.752;9.180;2023-07-13T12:23:34;43.10;20.30
423;DHT22;198;48.752;9.180;2023-07-13T12:26:06;42.40;20.60
423;DHT22;198;48.752;9.180;2023-07-13T12:28:35;43.60;20.90
423;DHT22;198;48.752;9.180;2023-07-13T12:31:04;44.60;21.00
423;DHT22;198;48.752;9.180;2023-07-13T12:33:32;47.50;19.70
423;DHT22;198;48.752;9.180;2023-07-13T12:36:01;48.30;19.00
423;DHT22;198;48.752;9.180;2023-07-13T12:38:28;51.00;17.70
423;DHT22;198;48.752;9.180;2023-07-13T12:40:55;50.20;16.60
423;DHT22;198;48.752;9.180;2023-07-13T12:43:21;47.50;17.00
423;DHT22;198;48.752;9.180;2023-07-13T12:46:01;44.80;18.40
423;DHT22;198;48.752;9.180;2023-07-13T12:48:28;42.40;19.20
423;DHT22;198;48.752;9.180;2023-07-13T12:50:55;40.50;20.50
423;DHT22;198;48.752;9.180;2023-07-13T12:53:23;41.10;20.60
423;DHT22;198;48.752;9.180;2023-07-13T12:55:59;43.70;19.30
423;DHT22;198;48.752;9.180;2023-07-13T12:58:40;47.50;18.70
423;DHT22;198;48.752;9.180;2023-07-13T13:01:12;50.10;17.30
423;DHT22;198;48.752;9.180;2023-07-13T13:03:41;51.90;16.70
423;DHT22;198;48.752;9.180;2023-07-13T13:08:44;55.60;14.80
423;DHT22;198;48.752;9.180;2023-07-13T13:11:10;55.50;14.00
423;DHT22;198;48.752;9.180;2023-07-13T13:13:35;52.40;14.10
423;DHT22;198;48.752;9.180;2023-07-13T13:16:09;49.40;15.70
423;DHT22;198;48.752;9.180;2023-07-13T13:18:36;49.50;15.60
423;DHT22;198;48.752;9.180;2023-07-13T13:21:01;50.20;15.50
423;DHT22;198;48.752;9.180;2023-07-13T13:23:28;50.90;15.60
423;DHT22;198;48.752;9.180;2023-07-13T13:25:53;51.40;15.20
423;DHT22;198;48.752;9.180;2023-07-13T13:28:20;51.80;15.10
423;DHT22;198;48.752;9.180;2023-07-13T13:30:47;52.00;15.30
423;DHT22;198;48.752;9.180;2023-07-13T13:33:15;53.00;15.10
423;DHT22;198;48.752;9.180;2023-07-13T13:35:41;53.90;14.90
423;DHT22;198;48.752;9.180;2023-07-13T13:38:20;54.90;14.50
423;DHT22;198;48.752;9.180;2023-07-13T13:40:47;54.90;14.50
423;DHT22;198;48.752;9.180;2023-07-13T13:43:22;54.10;14.30
423;DHT22;198;48.752;9.180;2023-07-13T13:45:52;54.70;14.50
423;DHT22;198;48.752;9.180;2023-07-13T13:48:20;55.00;14.50
423;DHT22;198;48.752;9.180;2023-07-13T13:50:48;55.20;14.10
423;DHT22;198;48.752;9.180;2023-07-13T13:53:14;55.70;14.00
423;DHT22;198;48.752;9.180;2023-07-13T13:55:40;56.10;14.00
423;DHT22;198;48.752;9.180;2023-07-13T13:58:08;54.40;14.00
423;DHT22;198;48.752;9.180;2023-07-13T14:00:35;51.50;14.20
423;DHT22;198;48.752;9.180;2023-07-13T14:03:00;50.40;15.30
423;DHT22;198;48.752;9.180;2023-07-13T14:05:26;50.40;15.10
423;DHT22;198;48.752;9.180;2023-07-13T14:07:53;49.40;15.80
423;DHT22;198;48.752;9.180;2023-07-13T14:10:19;49.40;16.10
423;DHT22;198;48.752;9.180;2023-07-13T14:12:51;49.30;15.70
423;DHT22;198;48.752;9.180;2023-07-13T14:15:18;47.30;16.10
423;DHT22;198;48.752;9.180;2023-07-13T14:17:45;45.00;16.90
423;DHT22;198;48.752;9.180;2023-07-13T14:20:12;42.90;17.70
423;DHT22;198;48.752;9.180;2023-07-13T14:22:37;42.20;18.30
423;DHT22;198;48.752;9.180;2023-07-13T14:25:03;42.20;19.40
423;DHT22;198;48.752;9.180;2023-07-13T14:27:29;44.60;18.00
423;DHT22;198;48.752;9.180;2023-07-13T14:29:54;45.50;17.20
423;DHT22;198;48.752;9.180;2023-07-13T14:32:20;45.50;17.60
423;DHT22;198;48.752;9.180;2023-07-13T14:34:45;44.10;17.60
423;DHT22;198;48.752;9.180;2023-07-13T14:37:15;42.80;18.10
423;DHT22;198;48.752;9.180;2023-07-13T14:39:43;40.90;18.80
423;DHT22;198;48.752;9.180;2023-07-13T14:42:09;39.10;20.00
423;DHT22;198;48.752;9.180;2023-07-13T14:44:37;39.10;20.80
423;DHT22;198;48.752;9.180;2023-07-13T14:47:04;41.50;19.50
423;DHT22;198;48.752;9.180;2023-07-13T14:49:39;43.80;18.30
423;DHT22;198;48.752;9.180;2023-07-13T14:54:39;47.50;16.60
423;DHT22;198;48.752;9.180;2023-07-13T14:57:14;48.60;16.30
423;DHT22;198;48.752;9.180;2023-07-13T14:59:41;49.80;16.80
423;DHT22;198;48.752;9.180;2023-07-13T15:02:15;50.60;15.40
423;DHT22;198;48.752;9.180;2023-07-13T15:04:41;51.20;15.70
423;DHT22;198;48.752;9.180;2023-07-13T15:07:10;50.70;15.30
423;DHT22;198;48.752;9.180;2023-07-13T15:09:35;49.90;15.00
423;DHT22;198;48.752;9.180;2023-07-13T15:12:01;48.50;15.40
423;DHT22;198;48.752;9.180;2023-07-13T15:14:27;47.60;15.80
423;DHT22;198;48.752;9.180;2023-07-13T15:16:55;45.70;16.90
423;DHT22;198;48.752;9.180;2023-07-13T15:19:21;44.90;18.00
423;DHT22;198;48.752;9.180;2023-07-13T15:21:48;46.30;17.80
423;DHT22;198;48.752;9.180;2023-07-13T15:24:14;47.70;16.70
423;DHT22;198;48.752;9.180;2023-07-13T15:26:41;48.70;16.40
423;DHT22;198;48.752;9.180;2023-07-13T15:29:11;49.30;16.30
423;DHT22;198;48.752;9.180;2023-07-13T15:31:36;49.70;15.90
423;DHT22;198;48.752;9.180;2023-07-13T15:34:10;49.60;15.40
423;DHT22;198;48.752;9.180;2023-07-13T15:36:37;49.30;15.60
423;DHT22;198;48.752;9.180;2023-07-13T15:39:03;48.30;15.70
423;DHT22;198;48.752;9.180;2023-07-13T15:41:28;46.90;16.30
423;DHT22;198;48.752;9.180;2023-07-13T15:43:56;45.70;17.10
423;DHT22;198;48.752;9.180;2023-07-13T15:46:27;44.60;17.30
423;DHT22;198;48.752;9.180;2023-07-13T15:48:54;44.60;17.60
423;DHT22;198;48.752;9.180;2023-07-13T15:51:26;45.00;17.30
423;DHT22;198;48.752;9.180;2023-07-13T15:53:58;45.70;17.40
423;DHT22;198;48.752;9.180;2023-07-13T15:56:26;46.00;17.50
423;DHT22;198;48.752;9.180;2023-07-13T15:58:52;46.70;16.90
423;DHT22;198;48.752;9.180;2023-07-13T16:01:18;46.50;16.40
423;DHT22;198;48.752;9.180;2023-07-13T16:03:47;46.50;16.50
423;DHT22;198;48.752;9.180;2023-07-13T16:06:22;46.50;16.40
423;DHT22;198;48.752;9.180;2023-07-13T16:08:50;46.40;16.70
423;DHT22;198;48.752;9.180;2023-07-13T16:11:26;46.50;16.50
423;DHT22;198;48.752;9.180;2023-07-13T16:13:52;46.70;16.20
423;DHT22;198;48.752;9.180;2023-07-13T16:16:26;46.10;16.60
423;DHT22;198;48.752;9.180;2023-07-13T16:18:53;44.30;17.30
423;DHT22;198;48.752;9.180;2023-07-13T16:21:26;43.20;17.80
423;DHT22;198;48.752;9.180;2023-07-13T16:23:52;42.70;18.30
423;DHT22;198;48.752;9.180;2023-07-13T16:26:33;41.70;18.50
423;DHT22;198;48.752;9.180;2023-07-13T16:29:15;41.90;18.50
423;DHT22;198;48.752;9.180;2023-07-13T16:31:42;42.40;18.60
423;DHT22;198;48.752;9.180;2023-07-13T16:34:19;42.90;18.50
423;DHT22;198;48.752;9.180;2023-07-13T16:36:45;43.40;18.20
423;DHT22;198;48.752;9.180;2023-07-13T16:39:12;43.30;17.80
423;DHT22;198;48.752;9.180;2023-07-13T16:41:38;42.60;18.00
423;DHT22;198;48.752;9.180;2023-07-13T16:44:12;42.30;18.10
423;DHT22;198;48.752;9.180;2023-07-13T16:46:38;41.90;18.60
423;DHT22;198;48.752;9.180;2023-07-13T16:49:18;41.50;18.50
423;DHT22;198;48.752;9.180;2023-07-13T16:51:45;41.30;18.80
423;DHT22;198;48.752;9.180;2023-07-13T16:54:10;41.00;19.40
423;DHT22;198;48.752;9.180;2023-07-13T16:56:36;40.30;19.30
423;DHT22;198;48.752;9.180;2023-07-13T16:59:02;39.30;20.00
423;DHT22;198;48.752;9.180;2023-07-13T17:01:31;37.80;20.20
423;DHT22;198;48.752;9.180;2023-07-13T17:03:56;36.40;21.60
423;DHT22;198;48.752;9.180;2023-07-13T17:06:27;35.30;22.80
423;DHT22;198;48.752;9.180;2023-07-13T17:08:54;34.20;23.30
423;DHT22;198;48.752;9.180;2023-07-13T17:11:21;33.30;24.30
423;DHT22;198;48.752;9.180;2023-07-13T17:13:48;32.60;25.10
423;DHT22;198;48.752;9.180;2023-07-13T17:16:13;31.70;25.30
423;DHT22;198;48.752;9.180;2023-07-13T17:18:39;31.10;26.00
423;DHT22;198;48.752;9.180;2023-07-13T17:21:07;30.50;26.90
423;DHT22;198;48.752;9.180;2023-07-13T17:23:33;30.00;27.20